Rock Creek, Canada
Current Conditions -  °F | °C
As of 2:00 AM on Monday 26 Jan 2015 (Local Time) from CYYF Reporting Station
Overcast Overcast  
Wind Chill: 31°   Ceiling: 600
Heat Index: 37°   Visibility: 10mi
Dew Point: 36°   Wind: 8mph
Humidity: 93%   Direction: 160°SSE
Pressure: 30.15"   Gusts: NA
Location:  49.07°N, 118.98°W
Report Text: CYYF 261000Z 16007KT 10SM OVC006 03/02 A3015 RMK SC8 SLP222
Loading
Personal Weather Stations






























Interactive Weather Map New forecast layout! Learn more

10-Day Weather Forecast

Advertisements
Track Severe Weather on mobile